Moose Pass, AK (99631)

4:55 PM AKDT on May 28, 2017 (GMT -0800)
Questa Woods | | Change Station

Elev 167 ft 60.17 °N, 149.39 °W | Updated 15 seconds ago

Rain
Rain
42.3 °F
Feels Like 42 °F
N
1.1
Wind Variable Wind from SW
Gusts 3.0 mph

Today
High -- | Low -- °F
--% Chance of Precip.
Yesterday
High -- | Low -- °F
Precip. -- in
Pressure 29.90 in
Visibility 8.0 miles
Clouds Overcast 2800 ft
Windchill 42 °F
Dew Point 41 °F
Humidity 95%
Rainfall 0.87 in
Snow Depth Not available.
4:47 AM 11:03 PM
Waxing Crescent, 15% visible
METAR PAWD 290053Z AUTO 18004KT 8SM -RA OVC028 06/04 A2990 RMK AO2 SLP123 P0003 T00560044 TSNO
Pressure 29.90 in
Visibility 8.0 miles
Clouds Overcast 2800 ft
Windchill 42 °F
Dew Point 41 °F
Humidity 95%
Rainfall 0.87 in
Snow Depth Not available.
4:47 AM 11:03 PM
Waxing Crescent, 15% visible
METAR PAWD 290053Z AUTO 18004KT 8SM -RA OVC028 06/04 A2990 RMK AO2 SLP123 P0003 T00560044 TSNO

Get Severe Weather Alerts

Thanks for signing up!

Be on the lookout for a verification email in your inbox.

You'll start receiving the daily forecast at 6 AM.

×

10-Day Weather Forecast

Almanac

Astronomy

May. 28, 2017 Rise Set
Actual Time
Civil Twilight
Nautical Twilight
Astronomical Twilight
Moon
Length of Visible Light
Length of Day
Tomorrow will be .
, % of the Moon is Illuminated

Today's Extremes

State Highs State Lows

Community

WunderPhotos

Category 6

Welcome to Category 6. This is the collective home for Weather Underground's featured writeups by Dr. Jeff Masters (right), Bob Henson (left), Chris Burt, and other regular contributors.

Nearby

Air Quality

  Air Quality AQ Index Pollutant
Not available.

Snow Depth

Station Depth Elevation

Earthquake Activity

City Distance Mag. Time & Date
Minimum magnitude displayed is 2.5.

Coastal Water Temperatures

Place Temperature

Stations

Nearby Weather Stations

Station Location Temp. Windchill Dew Point Humidity Wind Precip. Elev Updated Type
                   

Watches & Warnings

There are currently no watches in effect.